createdAt,value
2022-10-13T00:05:18.017Z,13.77
2022-10-13T00:10:43.061Z,13.95
2022-10-13T00:16:08.987Z,14.40
2022-10-13T00:21:32.600Z,12.65
2022-10-13T00:26:57.631Z,13.40
2022-10-13T00:32:21.474Z,14.00
2022-10-13T00:37:45.122Z,13.98
2022-10-13T00:43:17.666Z,14.77
2022-10-13T00:48:42.961Z,14.68
2022-10-13T00:54:08.128Z,16.00
2022-10-13T00:59:34.494Z,14.70
2022-10-13T01:04:59.190Z,15.10
2022-10-13T01:10:33.876Z,16.00
2022-10-13T01:16:04.997Z,14.38
2022-10-13T01:21:35.275Z,14.88
2022-10-13T01:27:39.240Z,14.95
2022-10-13T01:33:20.294Z,13.75
2022-10-13T01:38:49.184Z,13.70
2022-10-13T01:44:16.505Z,14.32
2022-10-13T01:49:51.599Z,12.80
2022-10-13T01:55:15.500Z,14.23
2022-10-13T02:00:48.256Z,14.48
2022-10-13T02:06:20.157Z,14.70
2022-10-13T02:11:50.615Z,15.43
2022-10-13T02:17:15.370Z,12.95
2022-10-13T02:22:47.571Z,13.45
2022-10-13T02:28:11.536Z,14.05
2022-10-13T02:33:39.085Z,13.75
2022-10-13T02:39:04.018Z,14.27
2022-10-13T02:44:27.589Z,12.70
2022-10-13T02:49:51.142Z,12.98
2022-10-13T02:55:16.291Z,12.75
2022-10-13T03:00:42.639Z,15.48
2022-10-13T03:06:07.009Z,14.82
2022-10-13T03:11:32.056Z,15.70
2022-10-13T03:16:55.705Z,13.73
2022-10-13T03:22:19.704Z,13.93
2022-10-13T03:27:44.812Z,15.40
2022-10-13T03:33:08.407Z,14.63
2022-10-13T03:38:33.636Z,13.20
2022-10-13T03:43:58.590Z,13.70
2022-10-13T03:49:22.170Z,15.02
2022-10-13T03:54:45.719Z,15.52
2022-10-13T04:00:12.493Z,15.52
2022-10-13T04:05:38.771Z,13.90
2022-10-13T04:11:03.597Z,15.07
2022-10-13T04:16:30.275Z,15.43
2022-10-13T04:21:53.878Z,14.35
2022-10-13T04:27:19.799Z,12.55
2022-10-13T04:32:44.750Z,14.45
2022-10-13T04:38:09.500Z,15.07
2022-10-13T04:43:33.849Z,13.52
2022-10-13T04:48:59.369Z,13.32
2022-10-13T04:54:28.825Z,13.68
2022-10-13T04:59:52.432Z,13.50
2022-10-13T05:05:17.675Z,12.48
2022-10-13T05:10:41.345Z,13.13
2022-10-13T05:16:09.105Z,13.63
2022-10-13T05:21:34.047Z,12.70
2022-10-13T05:26:57.740Z,14.02
2022-10-13T05:32:23.438Z,14.32
2022-10-13T05:37:48.668Z,14.07
2022-10-13T05:43:12.366Z,15.10
2022-10-13T05:48:37.037Z,15.70
2022-10-13T05:54:05.383Z,16.17
2022-10-13T05:59:31.168Z,17.35
2022-10-13T06:04:58.213Z,17.98
2022-10-13T06:10:23.803Z,16.48
2022-10-13T06:15:47.423Z,18.63
2022-10-13T06:21:11.043Z,17.25
2022-10-13T06:26:35.991Z,16.95
2022-10-13T06:31:59.573Z,17.05
2022-10-13T06:37:27.190Z,17.95
2022-10-13T06:42:52.799Z,17.40
2022-10-13T06:48:19.240Z,19.67
2022-10-13T06:53:44.963Z,20.17
2022-10-13T06:59:09.951Z,19.35
2022-10-13T07:04:34.423Z,18.52
2022-10-13T07:09:58.020Z,17.83
2022-10-13T07:15:24.800Z,17.92
2022-10-13T07:20:48.955Z,18.75
2022-10-13T07:26:14.448Z,19.02
2022-10-13T07:31:39.781Z,17.85
2022-10-13T07:37:03.399Z,16.70
2022-10-13T07:42:28.826Z,13.00
2022-10-13T07:47:53.834Z,10.77
2022-10-13T07:53:17.459Z,11.70
2022-10-13T07:58:45.003Z,12.15
2022-10-13T08:04:09.965Z,12.35
2022-10-13T08:09:33.615Z,12.73
2022-10-13T08:14:59.425Z,11.05
2022-10-13T08:20:36.181Z,9.60
2022-10-13T08:26:13.790Z,9.18
2022-10-13T08:31:37.651Z,8.30
2022-10-13T08:37:02.795Z,7.82
2022-10-13T08:42:26.466Z,8.43
2022-10-13T08:47:53.638Z,7.03
2022-10-13T08:53:26.776Z,7.57
2022-10-13T08:58:51.620Z,7.35
2022-10-13T09:04:27.656Z,7.38
2022-10-13T09:09:54.147Z,7.35
2022-10-13T09:15:20.700Z,7.63
2022-10-13T09:20:44.372Z,8.10
2022-10-13T09:26:10.999Z,8.25
2022-10-13T09:31:37.241Z,8.30
2022-10-13T09:37:05.550Z,7.20
2022-10-13T09:42:32.764Z,7.45
2022-10-13T09:48:00.682Z,9.40
2022-10-13T09:53:31.216Z,9.68
2022-10-13T09:59:02.310Z,9.38
2022-10-13T10:04:34.356Z,8.85
2022-10-13T10:10:01.806Z,8.82
2022-10-13T10:15:34.752Z,8.52
2022-10-13T10:21:07.752Z,9.07
2022-10-13T10:26:46.636Z,8.90
2022-10-13T10:32:36.646Z,7.82
2022-10-13T10:38:19.188Z,7.85
2022-10-13T10:43:47.967Z,9.50
2022-10-13T10:49:18.895Z,8.38
2022-10-13T10:54:49.500Z,8.60
2022-10-13T11:00:17.749Z,9.05
2022-10-13T11:06:04.598Z,9.68
2022-10-13T11:11:37.976Z,8.93
2022-10-13T11:17:19.053Z,8.90
2022-10-13T11:23:28.008Z,9.05
2022-10-13T11:28:54.309Z,9.73
2022-10-13T11:34:32.283Z,8.68
2022-10-13T11:40:17.400Z,9.05
2022-10-13T11:45:58.230Z,8.90
2022-10-13T11:51:31.206Z,7.80
2022-10-13T11:56:58.411Z,8.35
2022-10-13T12:02:24.493Z,7.75
2022-10-13T12:07:50.455Z,9.00
2022-10-13T12:13:24.211Z,6.90
2022-10-13T12:18:47.947Z,6.22
2022-10-13T12:24:17.795Z,6.60
2022-10-13T12:29:42.828Z,6.30
2022-10-13T12:35:19.036Z,6.22
2022-10-13T12:40:42.736Z,5.90
2022-10-13T12:46:09.401Z,6.30
2022-10-13T12:51:33.902Z,7.07
2022-10-13T12:56:59.708Z,5.57
2022-10-13T13:02:27.046Z,6.35
2022-10-13T13:07:53.905Z,5.95
2022-10-13T13:13:24.150Z,6.13
2022-10-13T13:18:49.968Z,5.72
2022-10-13T13:24:28.191Z,6.30
2022-10-13T13:29:52.537Z,6.72
2022-10-13T13:35:17.564Z,6.85
2022-10-13T13:40:41.144Z,5.57
2022-10-13T13:46:16.410Z,6.97
2022-10-13T13:51:41.338Z,6.25
2022-10-13T13:57:05.534Z,6.03
2022-10-13T14:02:29.174Z,6.90
2022-10-13T14:07:57.668Z,6.63
2022-10-13T14:13:21.299Z,6.82
2022-10-13T14:18:45.020Z,6.93
2022-10-13T14:24:11.589Z,5.82
2022-10-13T14:29:35.379Z,6.35
2022-10-13T14:34:59.022Z,6.07
2022-10-13T14:40:24.158Z,5.75
2022-10-13T14:45:47.864Z,6.15
2022-10-13T14:51:13.093Z,6.60
2022-10-13T14:56:38.198Z,6.80
2022-10-13T15:02:01.896Z,7.53
2022-10-13T15:07:25.530Z,8.93
2022-10-13T15:12:50.476Z,8.85
2022-10-13T15:18:14.137Z,7.80
2022-10-13T15:23:38.257Z,8.30
2022-10-13T15:29:03.275Z,8.25
2022-10-13T15:34:26.874Z,7.20
2022-10-13T15:39:56.038Z,8.98
2022-10-13T15:45:22.227Z,8.10
2022-10-13T15:50:45.882Z,9.20
2022-10-13T15:56:09.596Z,8.48
2022-10-13T16:01:34.821Z,8.77
2022-10-13T16:07:00.349Z,9.95
2022-10-13T16:12:24.803Z,9.38
2022-10-13T16:17:52.274Z,10.10
2022-10-13T16:23:15.845Z,10.98
2022-10-13T16:28:39.676Z,10.40
2022-10-13T16:34:04.806Z,13.52
2022-10-13T16:39:28.572Z,16.90
2022-10-13T16:44:52.160Z,18.88
2022-10-13T16:50:17.149Z,19.42
2022-10-13T16:55:40.794Z,20.10
2022-10-13T17:01:06.459Z,19.25
2022-10-13T17:06:31.589Z,31.95
2022-10-13T17:11:55.161Z,25.98
2022-10-13T17:17:18.961Z,24.25
2022-10-13T17:22:44.289Z,26.25
2022-10-13T17:28:07.879Z,23.17
2022-10-13T17:33:34.370Z,21.90
2022-10-13T17:39:05.204Z,19.85
2022-10-13T17:44:28.838Z,20.40
2022-10-13T17:49:52.447Z,18.27
2022-10-13T17:55:18.785Z,16.60
2022-10-13T18:01:08.067Z,18.10
2022-10-13T18:06:26.110Z,19.90
2022-10-13T18:11:53.284Z,18.45
2022-10-13T18:17:16.839Z,18.90
2022-10-13T18:22:40.457Z,17.77
2022-10-13T18:28:05.868Z,19.15
2022-10-13T18:33:29.475Z,18.77
2022-10-13T18:38:53.805Z,18.95
2022-10-13T18:44:19.569Z,17.40
2022-10-13T18:49:43.123Z,16.95
2022-10-13T18:55:07.912Z,22.38
2022-10-13T19:00:32.913Z,16.70
2022-10-13T19:05:57.352Z,18.52
2022-10-13T19:11:22.351Z,17.90
2022-10-13T19:16:47.388Z,20.63
2022-10-13T19:22:11.039Z,17.85
2022-10-13T19:27:34.655Z,16.63
2022-10-13T19:33:01.224Z,15.10
2022-10-13T19:38:25.240Z,13.90
2022-10-13T19:43:49.104Z,14.35
2022-10-13T19:49:16.081Z,15.02
2022-10-13T19:54:42.323Z,13.75
2022-10-13T20:00:09.221Z,15.00
2022-10-13T20:05:40.926Z,13.95
2022-10-13T20:11:07.138Z,15.48
2022-10-13T20:16:30.998Z,15.73
2022-10-13T20:21:56.415Z,17.80
2022-10-13T20:27:30.085Z,17.40
2022-10-13T20:32:57.616Z,16.25
2022-10-13T20:38:26.884Z,15.57
2022-10-13T20:43:50.759Z,16.50
2022-10-13T20:49:14.342Z,15.10
2022-10-13T20:54:39.287Z,16.23
2022-10-13T21:00:03.267Z,16.05
2022-10-13T21:05:29.778Z,15.55
2022-10-13T21:10:54.872Z,13.98
2022-10-13T21:16:20.506Z,17.40
2022-10-13T21:21:44.141Z,16.38
2022-10-13T21:27:09.056Z,15.45
2022-10-13T21:32:32.651Z,14.93
2022-10-13T21:37:56.230Z,16.85
2022-10-13T21:43:21.143Z,15.18
2022-10-13T21:48:45.626Z,15.23
2022-10-13T21:54:12.684Z,15.98
2022-10-13T21:59:37.625Z,16.27
2022-10-13T22:05:01.216Z,14.90
2022-10-13T22:10:24.949Z,15.02
2022-10-13T22:15:49.980Z,17.25
2022-10-13T22:21:19.163Z,15.48
2022-10-13T22:26:44.082Z,16.90
2022-10-13T22:32:09.121Z,17.40
2022-10-13T22:37:32.728Z,16.30
2022-10-13T22:42:56.367Z,15.00
2022-10-13T22:48:21.316Z,16.00
2022-10-13T22:53:45.500Z,15.63
2022-10-13T22:59:09.699Z,14.20
2022-10-13T23:04:35.782Z,14.48
2022-10-13T23:09:59.372Z,14.50
2022-10-13T23:15:22.963Z,14.15
2022-10-13T23:20:47.926Z,15.82
2022-10-13T23:26:14.545Z,16.30
2022-10-13T23:31:38.170Z,16.42
2022-10-13T23:37:03.180Z,15.02
2022-10-13T23:42:26.762Z,16.05
2022-10-13T23:47:50.374Z,14.10
2022-10-13T23:53:15.284Z,15.00
2022-10-13T23:58:39.997Z,14.13
